Time;durP1;ratioP1;P1;durP2;ratioP2;P2;SDS_P1;SDS_P2;PMS_P1;PMS_P2;Temp;Humidity;BMP_temperature;BMP_pressure;BME280_temperature;BME280_humidity;BME280_pressure;Samples;Min_cycle;Max_cycle;Signal;HPM_P1;HPM_P2
2022/09/23 00:01:10;;;;;;;17.90;16.52;;;5.90;99.90;;;;;;5039376;28;20045;-79
2022/09/23 00:03:40;;;;;;;17.63;16.27;;;5.80;99.90;;;;;;5039088;28;20047;-79
2022/09/23 00:06:12;;;;;;;17.30;16.00;;;5.80;99.90;;;;;;5033420;28;20136;-79
2022/09/23 00:08:39;;;;;;;17.88;16.38;;;5.80;99.90;;;;;;5035247;28;20244;-79
2022/09/23 00:11:15;;;;;;;18.25;16.85;;;5.80;99.90;;;;;;5041470;28;20067;-79
2022/09/23 00:13:44;;;;;;;18.17;16.42;;;5.70;99.90;;;;;;5034007;28;20037;-79
2022/09/23 00:16:18;;;;;;;17.40;16.17;;;5.70;99.90;;;;;;5043045;28;20041;-79
2022/09/23 00:18:44;;;;;;;18.98;17.48;;;5.90;99.90;;;;;;5040590;28;20060;-79
2022/09/23 00:21:13;;;;;;;18.05;16.63;;;5.80;99.90;;;;;;5038112;28;20723;-79
2022/09/23 00:23:41;;;;;;;18.73;17.17;;;5.70;99.90;;;;;;5014853;28;20128;-79
2022/09/23 00:26:11;;;;;;;18.27;16.60;;;5.90;99.90;;;;;;5036420;28;20040;-79
2022/09/23 00:28:38;;;;;;;18.92;17.33;;;5.80;99.90;;;;;;5034576;28;20063;-79
2022/09/23 00:31:07;;;;;;;17.98;16.67;;;5.90;99.90;;;;;;5028898;28;20037;-79
2022/09/23 00:33:34;;;;;;;16.83;15.55;;;6.00;99.90;;;;;;5034616;28;20056;-79
2022/09/23 00:36:04;;;;;;;18.08;16.58;;;6.00;99.90;;;;;;5026164;28;20064;-79
2022/09/23 00:38:32;;;;;;;17.52;15.98;;;6.10;99.90;;;;;;5049372;28;20127;-79
2022/09/23 00:41:01;;;;;;;17.73;16.40;;;6.00;99.90;;;;;;5040089;28;20282;-79
2022/09/23 00:43:44;;;;;;;17.33;16.02;;;6.00;99.90;;;;;;5045272;28;20047;-79
2022/09/23 00:46:18;;;;;;;17.67;16.38;;;5.90;99.90;;;;;;5033425;28;20171;-79
2022/09/23 00:48:47;;;;;;;16.25;14.95;;;6.00;99.90;;;;;;5028970;28;20576;-79
2022/09/23 00:51:19;;;;;;;17.95;16.35;;;6.10;99.90;;;;;;5035517;28;20106;-82
2022/09/23 00:53:48;;;;;;;17.27;15.73;;;6.10;99.90;;;;;;5050829;28;20080;-82
2022/09/23 00:56:15;;;;;;;16.52;15.07;;;6.10;99.90;;;;;;5025190;28;20104;-82
2022/09/23 00:58:44;;;;;;;17.45;15.85;;;6.00;99.90;;;;;;5027213;28;20048;-79
2022/09/23 01:01:13;;;;;;;17.45;16.15;;;5.90;99.90;;;;;;5038091;28;20041;-80
2022/09/23 01:03:43;;;;;;;16.42;15.23;;;5.90;99.90;;;;;;5025715;28;20040;-80
2022/09/23 01:06:10;;;;;;;18.17;16.70;;;6.00;99.90;;;;;;5035999;28;20535;-81
2022/09/23 01:08:37;;;;;;;17.58;15.77;;;6.10;99.90;;;;;;5052667;28;20049;-81
2022/09/23 01:11:17;;;;;;;17.70;16.20;;;6.10;99.90;;;;;;5052143;28;20722;-83
2022/09/23 01:13:58;;;;;;;16.75;15.45;;;6.10;99.90;;;;;;5026681;28;20057;-83
2022/09/23 01:16:57;;;;;;;17.00;15.27;;;6.10;99.90;;;;;;5043806;28;20043;-83
2022/09/23 01:19:42;;;;;;;16.17;14.98;;;6.10;99.90;;;;;;5050713;28;20044;-83
2022/09/23 01:22:20;;;;;;;16.65;15.30;;;6.10;99.90;;;;;;5047495;28;20064;-83
2022/09/23 01:25:23;;;;;;;16.50;15.10;;;6.10;99.90;;;;;;5023917;28;20451;-83
2022/09/23 01:28:17;;;;;;;15.93;14.82;;;6.00;99.90;;;;;;5054189;28;20045;-84
2022/09/23 01:31:24;;;;;;;16.23;15.18;;;5.90;99.90;;;;;;5030316;28;20052;-81
2022/09/23 01:34:01;;;;;;;17.60;15.93;;;5.80;99.90;;;;;;5044221;28;20052;-81
2022/09/23 01:36:50;;;;;;;17.48;16.10;;;5.60;99.90;;;;;;5046123;28;20040;-81
2022/09/23 01:39:35;;;;;;;18.88;17.15;;;5.50;99.90;;;;;;5028403;28;20071;-81
2022/09/23 01:42:26;;;;;;;19.15;17.33;;;5.50;99.90;;;;;;5044655;28;20032;-81
2022/09/23 01:45:09;;;;;;;18.15;16.70;;;5.50;99.90;;;;;;5053665;28;20102;-82
2022/09/23 01:48:32;;;;;;;18.17;16.77;;;5.70;99.90;;;;;;5044354;28;20052;-81
2022/09/23 01:51:13;;;;;;;18.63;16.92;;;5.60;99.90;;;;;;5028520;28;20449;-83
2022/09/23 01:53:49;;;;;;;19.92;18.00;;;5.40;99.90;;;;;;5024696;28;20045;-82
2022/09/23 01:56:22;;;;;;;18.98;17.33;;;5.60;99.90;;;;;;5024777;28;20049;-87
2022/09/23 01:59:08;;;;;;;20.02;18.35;;;5.50;99.90;;;;;;5046485;28;20044;-81
2022/09/23 02:02:01;;;;;;;;;;;5.30;99.90;;;;;;5018478;28;20037;-81
2022/09/23 02:04:44;;;;;;;18.08;16.58;;;5.30;99.90;;;;;;4995517;28;20148;-81
2022/09/23 02:07:26;;;;;;;20.00;18.30;;;5.30;99.90;;;;;;5053321;28;20397;-80
2022/09/23 02:10:06;;;;;;;20.88;18.52;;;5.20;99.90;;;;;;5048725;28;20045;-81
2022/09/23 02:12:34;;;;;;;18.42;16.92;;;5.10;99.90;;;;;;5043671;28;20150;-81
2022/09/23 02:15:06;;;;;;;21.50;18.20;;;5.10;99.90;;;;;;5028682;28;20037;-81
2022/09/23 02:17:43;;;;;;;19.00;17.35;;;5.20;99.90;;;;;;5036580;28;20140;-81
2022/09/23 02:20:14;;;;;;;18.70;16.90;;;5.20;99.90;;;;;;5050990;28;20132;-81
2022/09/23 02:23:01;;;;;;;18.80;17.20;;;5.10;99.90;;;;;;5015266;28;20131;-81
2022/09/23 02:25:37;;;;;;;19.50;17.73;;;5.10;99.90;;;;;;5039683;28;20083;-81
2022/09/23 02:28:18;;;;;;;19.02;17.25;;;5.00;99.90;;;;;;5046268;28;20040;-81
2022/09/23 02:30:56;;;;;;;19.77;17.83;;;5.00;99.90;;;;;;5028635;28;20045;-81
2022/09/23 02:33:37;;;;;;;19.33;17.73;;;5.10;99.90;;;;;;5040328;28;20060;-81
2022/09/23 02:36:32;;;;;;;19.13;17.52;;;5.10;99.90;;;;;;5042241;28;20128;-80
2022/09/23 02:39:05;;;;;;;19.50;17.63;;;5.40;99.90;;;;;;5050577;28;20044;-81
2022/09/23 02:41:45;;;;;;;18.35;16.85;;;5.60;99.90;;;;;;5034739;28;20486;-81
2022/09/23 02:44:15;;;;;;;17.92;16.23;;;5.60;99.90;;;;;;5042995;28;20044;-81
2022/09/23 02:46:42;;;;;;;19.15;16.98;;;5.70;99.90;;;;;;5041283;28;20037;-80
2022/09/23 02:49:16;;;;;;;18.17;16.40;;;5.60;99.90;;;;;;5025362;28;20044;-80
2022/09/23 02:51:44;;;;;;;17.42;15.73;;;5.70;99.90;;;;;;5023955;28;20036;-81
2022/09/23 02:54:15;;;;;;;16.83;15.10;;;5.70;99.90;;;;;;5022687;28;20036;-81
2022/09/23 02:56:42;;;;;;;17.50;15.95;;;5.70;99.90;;;;;;5041066;28;20729;-80
2022/09/23 02:59:10;;;;;;;17.20;15.73;;;5.70;99.90;;;;;;5017267;28;20391;-79
2022/09/23 03:02:04;;;;;;;19.75;17.75;;;5.70;99.90;;;;;;5036382;28;20047;-80
2022/09/23 03:04:49;;;;;;;18.15;16.40;;;5.70;99.90;;;;;;5038611;28;20044;-80
2022/09/23 03:07:22;;;;;;;20.70;17.20;;;5.80;99.90;;;;;;5055074;28;20070;-79
2022/09/23 03:10:01;;;;;;;16.75;15.10;;;5.90;99.90;;;;;;5051142;28;21225;-80
2022/09/23 03:12:38;;;;;;;17.35;15.82;;;5.80;99.90;;;;;;5015902;28;20128;-80
2022/09/23 03:15:35;;;;;;;17.02;15.45;;;5.70;99.90;;;;;;5053551;28;20465;-80
2022/09/23 03:18:33;;;;;;;18.10;16.27;;;5.80;99.90;;;;;;5049667;28;20133;-80
2022/09/23 03:21:12;;;;;;;17.60;16.17;;;5.70;99.90;;;;;;5051926;28;20037;-80
2022/09/23 03:23:41;;;;;;;18.23;16.73;;;5.60;99.90;;;;;;5043666;28;20618;-80
2022/09/23 03:26:14;;;;;;;18.00;16.40;;;5.70;99.90;;;;;;5022790;28;20044;-80
2022/09/23 03:28:43;;;;;;;19.05;17.33;;;5.80;99.90;;;;;;5043366;28;20132;-80
2022/09/23 03:31:12;;;;;;;20.85;18.67;;;5.90;99.90;;;;;;5028543;28;20040;-80
2022/09/23 03:33:46;;;;;;;18.88;17.27;;;5.90;99.90;;;;;;5039666;28;20052;-80
2022/09/23 03:39:11;;;;;;;20.02;18.13;;;5.80;99.90;;;;;;5049307;28;20136;-80
2022/09/23 03:41:43;;;;;;;;;;;5.90;99.90;;;;;;5043262;28;20045;-80
2022/09/23 03:44:10;;;;;;;19.48;17.67;;;6.00;99.90;;;;;;5034008;28;20629;-80
2022/09/23 03:46:37;;;;;;;19.05;17.42;;;5.90;99.90;;;;;;5041674;28;20442;-80
2022/09/23 03:49:23;;;;;;;19.65;17.70;;;6.00;99.90;;;;;;5036651;28;20040;-80
2022/09/23 03:51:49;;;;;;;19.20;17.50;;;6.10;99.90;;;;;;5028098;28;20041;-80
2022/09/23 03:54:18;;;;;;;20.73;18.63;;;6.00;99.90;;;;;;5040322;28;20037;-84
2022/09/23 03:56:49;;;;;;;19.52;17.73;;;5.80;99.90;;;;;;5035332;28;20032;-81
2022/09/23 03:59:15;;;;;;;18.02;16.70;;;5.70;99.90;;;;;;5045804;28;20104;-80
2022/09/23 04:01:42;;;;;;;20.65;18.75;;;5.60;99.90;;;;;;5019961;28;20202;-81
2022/09/23 04:04:09;;;;;;;20.17;18.48;;;5.60;99.90;;;;;;5028718;28;20040;-82
2022/09/23 04:06:36;;;;;;;20.20;18.55;;;5.60;99.90;;;;;;5032225;28;20115;-81
2022/09/23 04:09:02;;;;;;;21.13;19.33;;;5.60;99.90;;;;;;5025610;28;20043;-81
2022/09/23 04:11:29;;;;;;;21.63;19.58;;;5.50;99.90;;;;;;5031117;28;20047;-81
2022/09/23 04:13:59;;;;;;;22.67;20.83;;;5.50;99.90;;;;;;5037170;28;20055;-80
2022/09/23 04:16:26;;;;;;;23.05;20.98;;;5.70;99.90;;;;;;5053967;28;20112;-80
2022/09/23 04:18:56;;;;;;;21.70;19.63;;;5.80;99.90;;;;;;5031159;28;20037;-80
2022/09/23 04:21:23;;;;;;;21.15;19.45;;;5.70;99.90;;;;;;5060790;28;20052;-81
2022/09/23 04:23:49;;;;;;;20.85;19.08;;;5.70;99.90;;;;;;5050107;28;20068;-82
2022/09/23 04:26:17;;;;;;;20.35;18.85;;;5.70;99.90;;;;;;5026354;28;20064;-81
2022/09/23 04:28:45;;;;;;;22.23;20.13;;;5.80;99.90;;;;;;5046650;28;20065;-81
2022/09/23 04:31:11;;;;;;;20.58;19.05;;;5.80;99.90;;;;;;5035767;28;20045;-81
2022/09/23 04:33:38;;;;;;;20.98;19.27;;;5.80;99.90;;;;;;5042972;28;20045;-81
2022/09/23 04:36:05;;;;;;;21.52;19.63;;;5.80;99.90;;;;;;5033127;28;20503;-81
2022/09/23 04:38:32;;;;;;;21.58;19.67;;;5.90;99.90;;;;;;5038699;28;20045;-81
2022/09/23 04:40:59;;;;;;;20.67;19.15;;;6.00;99.90;;;;;;5039016;28;20041;-81
2022/09/23 04:43:26;;;;;;;19.65;18.25;;;6.00;99.90;;;;;;5017039;28;20055;-81
2022/09/23 04:46:00;;;;;;;19.77;18.00;;;6.00;99.90;;;;;;5045757;28;20048;-81
2022/09/23 04:48:27;;;;;;;20.75;19.20;;;6.00;99.90;;;;;;5021970;28;20045;-81
2022/09/23 04:51:04;;;;;;;20.58;19.02;;;6.00;99.90;;;;;;5025638;28;20498;-81
2022/09/23 04:53:31;;;;;;;20.77;19.27;;;6.10;99.90;;;;;;5031031;28;20834;-81
2022/09/23 04:56:10;;;;;;;20.42;18.67;;;6.10;99.90;;;;;;5041343;28;20048;-81
2022/09/23 04:58:38;;;;;;;20.52;19.08;;;6.10;99.90;;;;;;5041758;28;20041;-81
2022/09/23 05:01:09;;;;;;;20.95;19.27;;;6.00;99.90;;;;;;5043225;28;20052;-81
2022/09/23 05:03:36;;;;;;;22.67;20.55;;;6.00;99.90;;;;;;5042125;28;20053;-81
2022/09/23 05:06:04;;;;;;;21.92;19.90;;;6.10;99.90;;;;;;5021675;28;20051;-81
2022/09/23 05:08:30;;;;;;;22.23;20.27;;;6.10;99.90;;;;;;5029117;28;20052;-81
2022/09/23 05:10:58;;;;;;;23.08;20.90;;;6.00;99.90;;;;;;5039529;28;20068;-81
2022/09/23 05:13:25;;;;;;;21.13;19.58;;;6.00;99.90;;;;;;5030935;28;20048;-81
2022/09/23 05:15:57;;;;;;;22.52;20.65;;;6.00;99.90;;;;;;5042909;28;20132;-81
2022/09/23 05:18:24;;;;;;;23.67;21.55;;;6.00;99.90;;;;;;5042192;28;20057;-81
2022/09/23 05:20:54;;;;;;;23.52;21.63;;;5.90;99.90;;;;;;5027629;28;20527;-81
2022/09/23 05:23:22;;;;;;;23.02;21.25;;;5.90;99.90;;;;;;5025113;28;20049;-81
2022/09/23 05:25:58;;;;;;;26.00;23.77;;;6.00;99.90;;;;;;5029865;28;20053;-82
2022/09/23 05:28:28;;;;;;;24.25;22.50;;;6.00;99.90;;;;;;5023958;28;20062;-81
2022/09/23 05:31:14;;;;;;;25.20;22.80;;;6.00;99.90;;;;;;5038698;28;20537;-81
2022/09/23 05:33:50;;;;;;;24.67;22.52;;;5.90;99.90;;;;;;5040204;28;20105;-80
2022/09/23 05:36:19;;;;;;;24.45;22.13;;;6.00;99.90;;;;;;5042014;28;20659;-81
2022/09/23 05:38:48;;;;;;;24.20;22.30;;;6.10;99.90;;;;;;5050082;28;20482;-80
2022/09/23 05:41:15;;;;;;;24.65;22.67;;;6.20;99.90;;;;;;5048961;28;20048;-81
2022/09/23 05:43:42;;;;;;;24.77;22.45;;;6.30;99.90;;;;;;5024344;28;20183;-81
2022/09/23 05:46:17;;;;;;;24.17;22.17;;;6.20;99.90;;;;;;5047119;28;20036;-81
2022/09/23 05:48:46;;;;;;;25.17;23.23;;;6.20;99.90;;;;;;5045481;28;20087;-81
2022/09/23 05:51:20;;;;;;;24.33;22.60;;;6.20;99.90;;;;;;5037972;28;20564;-81
2022/09/23 05:53:49;;;;;;;24.40;22.35;;;6.30;99.90;;;;;;5034131;28;20620;-81
2022/09/23 05:56:18;;;;;;;24.42;22.50;;;6.40;99.90;;;;;;5050306;28;20040;-81
2022/09/23 05:58:47;;;;;;;24.13;22.42;;;6.40;99.90;;;;;;5047576;28;20132;-82
2022/09/23 06:01:25;;;;;;;23.55;21.60;;;6.40;99.90;;;;;;5046778;28;20075;-81
2022/09/23 06:03:54;;;;;;;24.65;22.67;;;6.60;99.90;;;;;;5053433;28;20053;-81
2022/09/23 06:06:29;;;;;;;24.15;22.35;;;6.60;99.90;;;;;;5043032;28;20051;-81
2022/09/23 06:08:59;;;;;;;23.20;21.60;;;6.70;99.90;;;;;;5049824;28;20713;-81
2022/09/23 06:11:28;;;;;;;30.05;24.17;;;6.70;99.90;;;;;;5054483;28;20052;-80
2022/09/23 06:13:59;;;;;;;29.27;23.42;;;6.70;99.90;;;;;;5046746;28;20083;-81
2022/09/23 06:16:27;;;;;;;24.08;22.17;;;6.80;99.90;;;;;;5038205;28;20081;-80
2022/09/23 06:18:54;;;;;;;24.00;22.25;;;6.80;99.90;;;;;;5041620;28;20084;-81
2022/09/23 06:21:21;;;;;;;24.35;22.63;;;6.90;99.90;;;;;;5049329;28;20049;-81
2022/09/23 06:23:48;;;;;;;23.10;21.48;;;7.00;99.90;;;;;;5043676;28;20043;-82
2022/09/23 06:26:19;;;;;;;23.52;21.50;;;7.10;99.90;;;;;;5045968;28;20457;-82
2022/09/23 06:28:47;;;;;;;23.42;21.75;;;7.10;99.90;;;;;;5046110;28;20059;-81
2022/09/23 06:31:15;;;;;;;22.95;21.35;;;7.10;99.90;;;;;;5042479;28;20127;-82
2022/09/23 06:33:43;;;;;;;22.38;20.67;;;7.10;99.90;;;;;;5048577;28;20043;-84
2022/09/23 06:36:12;;;;;;;22.98;21.38;;;7.00;99.90;;;;;;5040476;28;20052;-83
2022/09/23 06:38:51;;;;;;;22.73;20.98;;;7.10;99.90;;;;;;5045952;28;20123;-85
2022/09/23 06:41:19;;;;;;;21.50;20.08;;;7.20;99.90;;;;;;5054492;28;20580;-83
2022/09/23 06:43:46;;;;;;;21.88;20.17;;;7.30;99.90;;;;;;5038183;28;20135;-83
2022/09/23 06:46:15;;;;;;;21.58;19.90;;;7.20;99.90;;;;;;5034934;28;20331;-82
2022/09/23 06:48:42;;;;;;;21.17;19.85;;;7.30;99.90;;;;;;5044169;28;20045;-86
2022/09/23 06:51:20;;;;;;;22.42;20.83;;;7.30;99.90;;;;;;5046988;28;20041;-83
2022/09/23 06:53:47;;;;;;;;;;;7.50;99.90;;;;;;5043035;28;20486;-81
2022/09/23 06:56:16;;;;;;;23.48;21.52;;;7.50;99.90;;;;;;5056026;28;20016;-81
2022/09/23 06:58:45;;;;;;;22.90;21.33;;;7.50;99.90;;;;;;5026924;28;20494;-81
2022/09/23 07:01:16;;;;;;;21.92;20.30;;;7.70;99.90;;;;;;5032052;28;20041;-81
2022/09/23 07:03:46;;;;;;;23.15;21.35;;;7.80;99.90;;;;;;5046465;28;20168;-80
2022/09/23 07:06:13;;;;;;;22.45;20.70;;;7.90;99.90;;;;;;5044413;28;20040;-83
2022/09/23 07:08:48;;;;;;;22.23;20.40;;;8.00;99.90;;;;;;5047387;28;20541;-80
2022/09/23 07:11:18;;;;;;;23.20;21.40;;;8.10;99.90;;;;;;5048709;28;20040;-80
2022/09/23 07:13:44;;;;;;;23.48;21.08;;;8.20;99.90;;;;;;5022150;28;20049;-81
2022/09/23 07:16:11;;;;;;;22.27;20.63;;;8.40;99.90;;;;;;5037774;28;20040;-81
2022/09/23 07:18:39;;;;;;;21.35;19.95;;;8.60;99.90;;;;;;5044811;28;20045;-83
2022/09/23 07:21:13;;;;;;;21.15;19.60;;;8.70;99.90;;;;;;5041447;28;20131;-82
2022/09/23 07:23:45;;;;;;;20.30;18.20;;;8.90;99.90;;;;;;5051819;28;20757;-80
2022/09/23 07:26:13;;;;;;;22.63;20.55;;;9.20;99.90;;;;;;5026036;28;20085;-81
2022/09/23 07:28:40;;;;;;;20.52;19.13;;;9.40;99.90;;;;;;5056331;28;20053;-82
2022/09/23 07:31:09;;;;;;;22.17;20.48;;;9.70;99.90;;;;;;5029563;28;20514;-81
2022/09/23 07:33:38;;;;;;;22.80;21.08;;;10.00;99.90;;;;;;5041351;28;20114;-83
2022/09/23 07:36:07;;;;;;;21.83;20.50;;;10.30;99.90;;;;;;5024213;28;20065;-84
2022/09/23 07:38:37;;;;;;;23.92;22.23;;;10.50;99.90;;;;;;5044988;28;20044;-81
2022/09/23 07:41:12;;;;;;;23.35;21.58;;;10.70;99.90;;;;;;5033019;28;20045;-82
2022/09/23 07:43:39;;;;;;;23.60;21.70;;;10.90;99.90;;;;;;5044775;28;20461;-81
2022/09/23 07:46:09;;;;;;;24.63;22.92;;;11.10;99.90;;;;;;5043939;28;20036;-84
2022/09/23 07:48:37;;;;;;;26.10;23.45;;;11.30;99.90;;;;;;5031918;28;20667;-84
2022/09/23 07:51:31;;;;;;;26.08;22.67;;;11.60;99.90;;;;;;5038181;28;20519;-85
2022/09/23 07:54:10;;;;;;;24.45;22.40;;;11.80;99.90;;;;;;5046648;28;20044;-82
2022/09/23 07:56:37;;;;;;;24.60;22.85;;;11.90;99.90;;;;;;5020790;28;20095;-81
2022/09/23 07:59:07;;;;;;;27.45;23.20;;;11.80;99.90;;;;;;5042372;28;20238;-83
2022/09/23 08:01:43;;;;;;;24.00;22.33;;;11.70;99.90;;;;;;5039747;28;20044;-83
2022/09/23 08:04:09;;;;;;;;;;;11.70;99.90;;;;;;5047118;28;20060;-83
2022/09/23 08:06:43;;;;;;;25.65;23.48;;;12.00;99.90;;;;;;5037772;28;19927;-80
2022/09/23 08:09:11;;;;;;;24.10;22.73;;;12.10;99.90;;;;;;5047194;28;20048;-83
2022/09/23 08:11:40;;;;;;;25.05;23.38;;;12.50;99.90;;;;;;5043559;28;20048;-82
2022/09/23 08:14:09;;;;;;;24.50;23.10;;;12.50;99.90;;;;;;5024875;28;20075;-83
2022/09/23 08:16:37;;;;;;;24.20;22.65;;;12.60;99.90;;;;;;5034924;28;20045;-80
2022/09/23 08:19:04;;;;;;;23.38;21.48;;;13.00;99.90;;;;;;5050813;28;20035;-80
2022/09/23 08:21:38;;;;;;;25.50;22.92;;;13.00;99.90;;;;;;5044890;28;20062;-80
2022/09/23 08:24:06;;;;;;;24.45;22.52;;;13.30;99.90;;;;;;5018753;28;20049;-79
2022/09/23 08:26:33;;;;;;;25.65;23.48;;;13.50;99.90;;;;;;5035484;28;20140;-80
2022/09/23 08:29:01;;;;;;;24.88;23.02;;;13.70;99.90;;;;;;5058875;28;20391;-80
2022/09/23 08:31:27;;;;;;;24.77;22.75;;;13.90;99.90;;;;;;5045277;28;20127;-79
2022/09/23 08:33:55;;;;;;;24.38;22.88;;;14.20;99.90;;;;;;5046919;28;20127;-79
2022/09/23 08:36:23;;;;;;;25.13;23.00;;;14.30;99.90;;;;;;5021901;28;20049;-79
2022/09/23 08:38:50;;;;;;;24.65;23.05;;;14.40;99.90;;;;;;5053460;28;20520;-79
2022/09/23 08:41:53;;;;;;;25.23;22.90;;;14.60;99.90;;;;;;5044576;28;20048;-80
2022/09/23 08:44:36;;;;;;;25.33;23.20;;;14.80;99.90;;;;;;5037927;28;21278;-79
2022/09/23 08:47:10;;;;;;;25.05;23.25;;;15.30;99.90;;;;;;5034700;28;20090;-79
2022/09/23 08:49:56;;;;;;;26.00;23.73;;;15.40;99.90;;;;;;5052601;28;20048;-79
2022/09/23 08:52:49;;;;;;;25.20;23.50;;;15.40;99.90;;;;;;5057806;28;20047;-79
2022/09/23 08:55:18;;;;;;;25.88;23.77;;;15.70;99.90;;;;;;5052699;28;20053;-79
2022/09/23 08:58:00;;;;;;;25.42;23.65;;;15.60;99.90;;;;;;5058476;22;20538;-71
2022/09/23 09:01:02;;;;;;;24.27;22.77;;;15.80;99.90;;;;;;5027927;28;20074;-70
2022/09/23 09:03:35;;;;;;;24.00;22.40;;;15.80;99.90;;;;;;4983204;28;20081;-69
2022/09/23 09:06:02;;;;;;;23.10;21.60;;;15.90;99.90;;;;;;5014376;28;20506;-70
2022/09/23 09:08:35;;;;;;;24.42;23.02;;;16.00;99.90;;;;;;5014525;28;20041;-71
2022/09/23 09:11:04;;;;;;;24.75;23.20;;;16.00;99.90;;;;;;4991829;28;20100;-71
2022/09/23 09:13:42;;;;;;;25.13;23.50;;;15.90;99.90;;;;;;4995242;28;20418;-69
2022/09/23 09:16:55;;;;;;;24.35;23.05;;;16.10;99.90;;;;;;5017615;28;20183;-71
2022/09/23 09:19:51;;;;;;;25.20;23.85;;;16.20;99.90;;;;;;5013508;28;20045;-71
2022/09/23 09:22:34;;;;;;;26.08;24.67;;;16.40;99.90;;;;;;5000583;28;20079;-71
2022/09/23 09:25:15;;;;;;;26.48;24.75;;;16.50;99.90;;;;;;5017269;28;20049;-71
2022/09/23 09:27:42;;;;;;;26.05;24.38;;;16.30;99.90;;;;;;5014961;28;20042;-71
2022/09/23 09:30:13;;;;;;;25.92;24.42;;;16.20;99.90;;;;;;5000025;28;20052;-71
2022/09/23 09:33:05;;;;;;;26.88;25.08;;;16.30;99.90;;;;;;5013585;28;20350;-69
2022/09/23 09:36:13;;;;;;;26.73;25.10;;;16.50;99.90;;;;;;5013640;28;20452;-71
2022/09/23 09:38:40;;;;;;;25.77;24.05;;;16.70;99.90;;;;;;4996726;28;20064;-71
2022/09/23 09:41:14;;;;;;;25.60;23.90;;;16.90;99.90;;;;;;5000190;28;20450;-70
2022/09/23 09:43:44;;;;;;;27.30;24.80;;;16.80;99.90;;;;;;5014889;28;20144;-70
2022/09/23 09:46:48;;;;;;;26.70;24.95;;;16.80;99.90;;;;;;5018486;28;20504;-71
2022/09/23 09:49:44;;;;;;;25.58;23.98;;;17.00;99.90;;;;;;5004200;28;20165;-70
2022/09/23 09:52:22;;;;;;;26.00;24.13;;;17.00;99.90;;;;;;5013291;28;20411;-71
2022/09/23 09:54:50;;;;;;;25.20;23.60;;;17.00;99.90;;;;;;5014268;28;20037;-70
2022/09/23 09:57:26;;;;;;;25.45;23.75;;;17.20;99.90;;;;;;4989839;28;20443;-71
2022/09/23 10:00:25;;;;;;;26.58;24.00;;;17.20;99.90;;;;;;5000056;28;20133;-71
2022/09/23 10:03:00;;;;;;;24.05;22.42;;;17.30;99.90;;;;;;4996969;28;20337;-74
2022/09/23 10:05:47;;;;;;;25.00;23.42;;;17.30;99.90;;;;;;5000245;28;20510;-75
2022/09/23 10:08:33;;;;;;;24.50;22.88;;;17.20;99.90;;;;;;5014990;28;20045;-75
2022/09/23 10:11:17;;;;;;;24.05;22.58;;;17.50;99.90;;;;;;5000478;28;20337;-75
2022/09/23 10:14:09;;;;;;;25.00;23.40;;;17.60;99.90;;;;;;5014567;28;20490;-75
2022/09/23 10:16:36;;;;;;;25.10;23.50;;;17.90;99.90;;;;;;5009354;28;20052;-75
2022/09/23 10:19:13;;;;;;;26.38;24.30;;;18.10;99.90;;;;;;4999939;28;20041;-75
2022/09/23 10:21:41;;;;;;;26.30;24.80;;;18.10;99.90;;;;;;4998356;28;20064;-80
2022/09/23 10:24:22;;;;;;;26.80;25.00;;;18.10;99.90;;;;;;4993303;28;20061;-82
2022/09/23 10:27:23;;;;;;;26.40;24.80;;;18.00;99.90;;;;;;5028472;28;20025;-84
2022/09/23 10:29:54;;;;;;;28.17;26.27;;;17.90;99.90;;;;;;4992632;28;21015;-80
2022/09/23 10:32:37;;;;;;;28.60;26.63;;;18.00;99.90;;;;;;5003178;28;20537;-78
2022/09/23 10:35:12;;;;;;;26.25;24.55;;;18.00;99.90;;;;;;4987640;28;20043;-76
2022/09/23 10:37:58;;;;;;;26.95;25.13;;;17.70;99.90;;;;;;4999739;28;20549;-77
2022/09/23 10:46:46;;;;;;;27.27;25.75;;;18.10;99.90;;;;;;5002727;28;20426;-77
2022/09/23 10:49:25;;;;;;;29.05;27.15;;;18.30;99.90;;;;;;5003959;28;20140;-80
2022/09/23 10:52:30;;;;;;;28.27;26.48;;;18.30;99.90;;;;;;5001901;28;20715;-78
2022/09/23 10:55:15;;;;;;;27.85;26.05;;;18.30;99.90;;;;;;4992961;28;20066;-76
2022/09/23 10:58:07;;;;;;;27.88;25.98;;;18.50;99.90;;;;;;4981762;28;20060;-77
2022/09/23 11:00:50;;;;;;;28.13;26.17;;;18.40;99.90;;;;;;5000479;28;20045;-77
2022/09/23 11:03:26;;;;;;;27.80;25.90;;;18.40;99.90;;;;;;5001892;28;20052;-76
2022/09/23 11:06:17;;;;;;;26.27;24.77;;;18.20;99.90;;;;;;5001843;28;20397;-79
2022/09/23 11:09:28;;;;;;;26.75;25.05;;;18.20;99.90;;;;;;4987236;28;20042;-79
2022/09/23 11:12:16;;;;;;;26.83;24.98;;;18.40;99.90;;;;;;4913690;29;20040;-78
2022/09/23 11:15:00;;;;;;;27.55;25.52;;;18.50;99.90;;;;;;4987716;28;20069;-79
2022/09/23 11:17:35;;;;;;;26.20;24.13;;;18.60;99.90;;;;;;4983671;28;20179;-79
2022/09/23 11:20:17;;;;;;;25.98;24.27;;;18.10;99.90;;;;;;5001073;28;20504;-77
2022/09/23 11:23:24;;;;;;;26.83;25.33;;;18.00;99.90;;;;;;4998835;28;20175;-77
2022/09/23 11:25:57;;;;;;;27.98;26.13;;;18.10;99.90;;;;;;4998847;28;20049;-79
2022/09/23 11:28:31;;;;;;;27.58;25.88;;;18.00;99.90;;;;;;5018066;28;20531;-77
2022/09/23 11:30:59;;;;;;;;;;;17.90;99.90;;;;;;5000914;28;20037;-79
2022/09/23 11:34:05;;;;;;;26.73;25.23;;;17.90;99.90;;;;;;5000871;28;19974;-79
2022/09/23 11:36:40;;;;;;;27.65;25.50;;;18.10;99.90;;;;;;4958200;28;20046;-78
2022/09/23 11:39:16;;;;;;;27.85;26.05;;;18.30;99.90;;;;;;4935191;28;20766;-76
2022/09/23 11:41:44;;;;;;;28.13;26.40;;;18.00;99.90;;;;;;4983178;28;20052;-75
2022/09/23 11:44:22;;;;;;;27.38;25.58;;;18.00;99.90;;;;;;5001302;28;20045;-77
2022/09/23 11:46:58;;;;;;;29.40;27.38;;;17.90;99.90;;;;;;5015974;28;20037;-77
2022/09/23 11:49:48;;;;;;;28.40;26.65;;;17.80;99.90;;;;;;5020901;28;20042;-76
2022/09/23 11:52:21;;;;;;;27.95;26.15;;;17.70;99.90;;;;;;5015808;28;20071;-79
2022/09/23 11:55:21;;;;;;;28.58;26.73;;;17.80;99.90;;;;;;5016915;28;20037;-79
2022/09/23 11:57:51;;;;;;;28.40;26.48;;;18.00;99.90;;;;;;4998578;28;20100;-78
2022/09/23 12:00:25;;;;;;;27.77;26.17;;;18.00;99.90;;;;;;5000708;28;20041;-79
2022/09/23 12:03:22;;;;;;;28.15;26.45;;;18.00;99.90;;;;;;4998091;28;20401;-77
2022/09/23 12:06:08;;;;;;;28.05;26.25;;;18.00;99.90;;;;;;5013040;28;20053;-79
2022/09/23 12:08:38;;;;;;;28.05;26.08;;;18.10;99.90;;;;;;5017490;28;20041;-81
2022/09/23 12:11:26;;;;;;;28.20;26.42;;;18.10;99.90;;;;;;5015319;28;20033;-77
2022/09/23 12:14:19;;;;;;;27.67;25.95;;;17.70;99.90;;;;;;4996852;28;21114;-75
2022/09/23 12:17:30;;;;;;;27.60;25.88;;;17.70;99.90;;;;;;5012842;28;20030;-75
2022/09/23 12:20:08;;;;;;;29.30;27.48;;;17.80;99.90;;;;;;5004212;28;20483;-75
2022/09/23 12:23:32;;;;;;;28.10;26.40;;;17.80;99.90;;;;;;5013357;28;20056;-78
2022/09/23 12:26:05;;;;;;;28.05;26.20;;;17.80;99.90;;;;;;4946134;28;20093;-75
2022/09/23 12:28:44;;;;;;;27.52;25.92;;;17.90;99.90;;;;;;5009345;28;20092;-75
2022/09/23 12:31:17;;;;;;;27.85;26.15;;;17.70;99.90;;;;;;5015337;28;20072;-74
2022/09/23 12:33:53;;;;;;;27.77;25.75;;;17.50;99.90;;;;;;5013912;28;20050;-74
2022/09/23 12:36:34;;;;;;;28.85;26.80;;;17.50;99.90;;;;;;4997928;28;20159;-75
2022/09/23 12:39:25;;;;;;;28.33;26.52;;;17.50;99.90;;;;;;4999613;28;20342;-75
2022/09/23 12:42:01;;;;;;;28.15;25.80;;;17.50;99.90;;;;;;5013499;28;20045;-78
2022/09/23 12:44:39;;;;;;;26.67;24.98;;;17.50;99.90;;;;;;5018777;28;20052;-77
2022/09/23 12:47:24;;;;;;;28.50;26.75;;;17.50;99.90;;;;;;5017443;28;20224;-77
2022/09/23 12:50:00;;;;;;;27.98;26.27;;;17.60;99.90;;;;;;5017110;28;20072;-76
2022/09/23 12:52:31;;;;;;;27.70;26.00;;;17.70;99.90;;;;;;5002511;28;20511;-76
2022/09/23 12:55:33;;;;;;;28.42;26.63;;;17.80;99.90;;;;;;5018163;28;20037;-77
2022/09/23 12:58:00;;;;;;;28.77;26.73;;;18.00;99.90;;;;;;4978248;28;1183085;-77
2022/09/23 13:00:27;;;;;;;28.92;27.23;;;18.00;99.90;;;;;;5004489;28;20062;-76
2022/09/23 13:08:38;;;;;;;26.95;25.35;;;18.10;99.90;;;;;;5039606;28;20133;-73
2022/09/23 13:11:33;;;;;;;27.10;25.30;;;18.20;99.90;;;;;;5033590;28;20513;-74
2022/09/23 13:14:04;;;;;;;28.67;26.88;;;18.30;99.90;;;;;;5006736;28;20512;-73
2022/09/23 13:16:39;;;;;;;27.52;25.85;;;18.30;99.90;;;;;;5026854;28;20055;-73
2022/09/23 13:19:30;;;;;;;27.83;26.17;;;18.30;99.90;;;;;;4999837;28;20188;-73
2022/09/23 13:22:08;;;;;;;27.75;26.02;;;18.40;99.90;;;;;;5027999;28;20041;-73
2022/09/23 13:24:40;;;;;;;28.55;26.85;;;18.50;99.90;;;;;;5009888;28;20049;-73
2022/09/23 13:27:29;;;;;;;28.55;26.75;;;18.70;99.90;;;;;;5025481;28;20045;-73
2022/09/23 13:30:06;;;;;;;28.02;26.33;;;18.80;99.90;;;;;;5021252;28;20541;-73
2022/09/23 13:32:43;;;;;;;27.00;25.30;;;18.90;99.90;;;;;;5002631;28;20125;-73